sensor_id;sensor_type;location;lat;lon;timestamp;P1;durP1;ratioP1;P2;durP2;ratioP2
15616;SDS011;7908;51.688;7.130;2023-04-01T00:01:16;8.07;;;3.70;;
15616;SDS011;7908;51.688;7.130;2023-04-01T00:03:44;6.20;;;3.07;;
15616;SDS011;7908;51.688;7.130;2023-04-01T00:06:14;7.77;;;3.33;;
15616;SDS011;7908;51.688;7.130;2023-04-01T00:08:46;9.20;;;3.13;;
15616;SDS011;7908;51.688;7.130;2023-04-01T00:11:15;8.20;;;3.37;;
15616;SDS011;7908;51.688;7.130;2023-04-01T00:13:46;8.70;;;3.53;;
15616;SDS011;7908;51.688;7.130;2023-04-01T00:16:15;8.03;;;3.73;;
15616;SDS011;7908;51.688;7.130;2023-04-01T00:18:48;8.13;;;3.70;;
15616;SDS011;7908;51.688;7.130;2023-04-01T00:21:18;8.27;;;4.40;;
15616;SDS011;7908;51.688;7.130;2023-04-01T00:23:50;7.43;;;3.97;;
15616;SDS011;7908;51.688;7.130;2023-04-01T00:26:19;7.23;;;3.90;;
15616;SDS011;7908;51.688;7.130;2023-04-01T00:28:49;7.70;;;4.50;;
15616;SDS011;7908;51.688;7.130;2023-04-01T00:31:18;7.53;;;4.50;;
15616;SDS011;7908;51.688;7.130;2023-04-01T00:33:47;7.43;;;4.87;;
15616;SDS011;7908;51.688;7.130;2023-04-01T00:36:16;7.97;;;4.40;;
15616;SDS011;7908;51.688;7.130;2023-04-01T00:38:46;9.90;;;4.70;;
15616;SDS011;7908;51.688;7.130;2023-04-01T00:41:17;5.50;;;4.40;;
15616;SDS011;7908;51.688;7.130;2023-04-01T00:43:48;6.80;;;4.80;;
15616;SDS011;7908;51.688;7.130;2023-04-01T00:46:18;9.10;;;5.07;;
15616;SDS011;7908;51.688;7.130;2023-04-01T00:48:48;11.90;;;5.27;;
15616;SDS011;7908;51.688;7.130;2023-04-01T00:51:20;9.70;;;4.97;;
15616;SDS011;7908;51.688;7.130;2023-04-01T00:53:52;6.83;;;5.13;;
15616;SDS011;7908;51.688;7.130;2023-04-01T00:56:24;6.73;;;5.10;;
15616;SDS011;7908;51.688;7.130;2023-04-01T00:58:59;12.00;;;5.67;;
15616;SDS011;7908;51.688;7.130;2023-04-01T01:01:29;11.50;;;6.10;;
15616;SDS011;7908;51.688;7.130;2023-04-01T01:03:59;9.17;;;5.67;;
15616;SDS011;7908;51.688;7.130;2023-04-01T01:06:33;7.60;;;5.90;;
15616;SDS011;7908;51.688;7.130;2023-04-01T01:09:21;6.17;;;5.57;;
15616;SDS011;7908;51.688;7.130;2023-04-01T01:12:12;9.03;;;5.87;;
15616;SDS011;7908;51.688;7.130;2023-04-01T01:14:54;9.13;;;6.70;;
15616;SDS011;7908;51.688;7.130;2023-04-01T01:17:32;11.93;;;6.50;;
15616;SDS011;7908;51.688;7.130;2023-04-01T01:20:20;10.93;;;6.60;;
15616;SDS011;7908;51.688;7.130;2023-04-01T01:23:07;10.53;;;6.03;;
15616;SDS011;7908;51.688;7.130;2023-04-01T01:25:58;8.13;;;6.00;;
15616;SDS011;7908;51.688;7.130;2023-04-01T01:28:44;9.67;;;5.80;;
15616;SDS011;7908;51.688;7.130;2023-04-01T01:31:24;6.63;;;5.40;;
15616;SDS011;7908;51.688;7.130;2023-04-01T01:34:03;8.63;;;6.50;;
15616;SDS011;7908;51.688;7.130;2023-04-01T01:36:43;10.70;;;6.90;;
15616;SDS011;7908;51.688;7.130;2023-04-01T01:39:14;8.40;;;5.53;;
15616;SDS011;7908;51.688;7.130;2023-04-01T01:41:44;9.63;;;6.20;;
15616;SDS011;7908;51.688;7.130;2023-04-01T01:44:16;8.33;;;6.10;;
15616;SDS011;7908;51.688;7.130;2023-04-01T01:46:45;8.43;;;5.10;;
15616;SDS011;7908;51.688;7.130;2023-04-01T01:49:15;9.30;;;6.10;;
15616;SDS011;7908;51.688;7.130;2023-04-01T01:51:47;5.87;;;4.83;;
15616;SDS011;7908;51.688;7.130;2023-04-01T01:54:16;6.43;;;4.43;;
15616;SDS011;7908;51.688;7.130;2023-04-01T01:56:47;8.50;;;4.70;;
15616;SDS011;7908;51.688;7.130;2023-04-01T01:59:21;5.77;;;4.50;;
15616;SDS011;7908;51.688;7.130;2023-04-01T02:01:52;8.30;;;4.63;;
15616;SDS011;7908;51.688;7.130;2023-04-01T02:04:23;7.07;;;4.60;;
15616;SDS011;7908;51.688;7.130;2023-04-01T02:06:55;6.67;;;5.00;;
15616;SDS011;7908;51.688;7.130;2023-04-01T02:09:27;8.33;;;4.50;;
15616;SDS011;7908;51.688;7.130;2023-04-01T02:11:57;4.93;;;4.33;;
15616;SDS011;7908;51.688;7.130;2023-04-01T02:14:29;7.73;;;4.60;;
15616;SDS011;7908;51.688;7.130;2023-04-01T02:17:05;8.77;;;4.00;;
15616;SDS011;7908;51.688;7.130;2023-04-01T02:19:38;6.87;;;4.40;;
15616;SDS011;7908;51.688;7.130;2023-04-01T02:22:13;7.27;;;4.53;;
15616;SDS011;7908;51.688;7.130;2023-04-01T02:24:47;5.07;;;4.30;;
15616;SDS011;7908;51.688;7.130;2023-04-01T02:27:18;6.87;;;3.90;;
15616;SDS011;7908;51.688;7.130;2023-04-01T02:29:47;4.67;;;4.17;;
15616;SDS011;7908;51.688;7.130;2023-04-01T02:32:16;5.90;;;4.00;;
15616;SDS011;7908;51.688;7.130;2023-04-01T02:34:47;4.57;;;4.00;;
15616;SDS011;7908;51.688;7.130;2023-04-01T02:37:17;5.83;;;4.40;;
15616;SDS011;7908;51.688;7.130;2023-04-01T02:39:46;5.13;;;4.63;;
15616;SDS011;7908;51.688;7.130;2023-04-01T02:42:15;8.33;;;5.30;;
15616;SDS011;7908;51.688;7.130;2023-04-01T02:44:44;6.77;;;5.33;;
15616;SDS011;7908;51.688;7.130;2023-04-01T02:47:12;8.17;;;6.03;;
15616;SDS011;7908;51.688;7.130;2023-04-01T02:49:43;7.50;;;5.60;;
15616;SDS011;7908;51.688;7.130;2023-04-01T02:52:12;7.73;;;6.83;;
15616;SDS011;7908;51.688;7.130;2023-04-01T02:54:42;9.20;;;7.90;;
15616;SDS011;7908;51.688;7.130;2023-04-01T02:57:11;10.10;;;8.77;;
15616;SDS011;7908;51.688;7.130;2023-04-01T02:59:39;12.07;;;9.13;;
15616;SDS011;7908;51.688;7.130;2023-04-01T03:02:08;10.50;;;9.37;;
15616;SDS011;7908;51.688;7.130;2023-04-01T03:04:37;11.27;;;9.27;;
15616;SDS011;7908;51.688;7.130;2023-04-01T03:07:05;9.87;;;7.90;;
15616;SDS011;7908;51.688;7.130;2023-04-01T03:09:34;8.97;;;7.93;;
15616;SDS011;7908;51.688;7.130;2023-04-01T03:12:04;8.73;;;7.63;;
15616;SDS011;7908;51.688;7.130;2023-04-01T03:14:34;9.97;;;7.90;;
15616;SDS011;7908;51.688;7.130;2023-04-01T03:17:02;8.20;;;7.40;;
15616;SDS011;7908;51.688;7.130;2023-04-01T03:19:31;8.27;;;7.13;;
15616;SDS011;7908;51.688;7.130;2023-04-01T03:22:00;8.13;;;6.97;;
15616;SDS011;7908;51.688;7.130;2023-04-01T03:24:29;7.90;;;7.10;;
15616;SDS011;7908;51.688;7.130;2023-04-01T03:26:57;9.47;;;6.90;;
15616;SDS011;7908;51.688;7.130;2023-04-01T03:29:27;7.97;;;7.03;;
15616;SDS011;7908;51.688;7.130;2023-04-01T03:31:56;9.27;;;7.50;;
15616;SDS011;7908;51.688;7.130;2023-04-01T03:34:25;9.37;;;7.67;;
15616;SDS011;7908;51.688;7.130;2023-04-01T03:36:54;9.20;;;8.00;;
15616;SDS011;7908;51.688;7.130;2023-04-01T03:39:23;9.00;;;8.10;;
15616;SDS011;7908;51.688;7.130;2023-04-01T03:41:51;9.40;;;8.20;;
15616;SDS011;7908;51.688;7.130;2023-04-01T03:44:20;10.47;;;8.33;;
15616;SDS011;7908;51.688;7.130;2023-04-01T03:46:50;9.53;;;8.53;;
15616;SDS011;7908;51.688;7.130;2023-04-01T03:49:19;9.53;;;8.53;;
15616;SDS011;7908;51.688;7.130;2023-04-01T03:51:47;10.23;;;9.23;;
15616;SDS011;7908;51.688;7.130;2023-04-01T03:54:17;11.30;;;9.00;;
15616;SDS011;7908;51.688;7.130;2023-04-01T03:56:46;18.13;;;16.30;;
15616;SDS011;7908;51.688;7.130;2023-04-01T03:59:16;12.57;;;11.37;;
15616;SDS011;7908;51.688;7.130;2023-04-01T04:01:45;14.87;;;13.17;;
15616;SDS011;7908;51.688;7.130;2023-04-01T04:04:16;11.17;;;10.07;;
15616;SDS011;7908;51.688;7.130;2023-04-01T04:06:44;10.33;;;9.33;;
15616;SDS011;7908;51.688;7.130;2023-04-01T04:09:13;9.93;;;9.00;;
15616;SDS011;7908;51.688;7.130;2023-04-01T04:11:42;10.03;;;8.97;;
15616;SDS011;7908;51.688;7.130;2023-04-01T04:14:10;9.83;;;8.83;;
15616;SDS011;7908;51.688;7.130;2023-04-01T04:16:39;10.07;;;8.67;;
15616;SDS011;7908;51.688;7.130;2023-04-01T04:19:08;13.03;;;10.40;;
15616;SDS011;7908;51.688;7.130;2023-04-01T04:21:38;13.77;;;11.47;;
15616;SDS011;7908;51.688;7.130;2023-04-01T04:24:08;13.43;;;10.20;;
15616;SDS011;7908;51.688;7.130;2023-04-01T04:26:37;9.77;;;8.27;;
15616;SDS011;7908;51.688;7.130;2023-04-01T04:29:05;10.53;;;8.60;;
15616;SDS011;7908;51.688;7.130;2023-04-01T04:31:34;9.20;;;8.27;;
15616;SDS011;7908;51.688;7.130;2023-04-01T04:34:03;10.67;;;9.53;;
15616;SDS011;7908;51.688;7.130;2023-04-01T04:36:31;10.83;;;9.70;;
15616;SDS011;7908;51.688;7.130;2023-04-01T04:39:01;11.17;;;9.60;;
15616;SDS011;7908;51.688;7.130;2023-04-01T04:41:30;11.50;;;10.20;;
15616;SDS011;7908;51.688;7.130;2023-04-01T04:44:01;13.30;;;11.40;;
15616;SDS011;7908;51.688;7.130;2023-04-01T04:46:30;14.30;;;11.67;;
15616;SDS011;7908;51.688;7.130;2023-04-01T04:48:58;14.93;;;12.67;;
15616;SDS011;7908;51.688;7.130;2023-04-01T04:51:27;12.37;;;11.03;;
15616;SDS011;7908;51.688;7.130;2023-04-01T04:53:56;11.60;;;10.33;;
15616;SDS011;7908;51.688;7.130;2023-04-01T04:56:26;13.70;;;11.40;;
15616;SDS011;7908;51.688;7.130;2023-04-01T04:58:54;12.90;;;11.50;;
15616;SDS011;7908;51.688;7.130;2023-04-01T05:01:23;12.97;;;11.57;;
15616;SDS011;7908;51.688;7.130;2023-04-01T05:03:52;12.00;;;10.90;;
15616;SDS011;7908;51.688;7.130;2023-04-01T05:06:20;13.43;;;12.03;;
15616;SDS011;7908;51.688;7.130;2023-04-01T05:08:49;15.47;;;12.30;;
15616;SDS011;7908;51.688;7.130;2023-04-01T05:11:18;14.60;;;13.10;;
15616;SDS011;7908;51.688;7.130;2023-04-01T05:13:48;16.87;;;12.73;;
15616;SDS011;7908;51.688;7.130;2023-04-01T05:16:18;14.40;;;12.67;;
15616;SDS011;7908;51.688;7.130;2023-04-01T05:18:47;16.70;;;13.43;;
15616;SDS011;7908;51.688;7.130;2023-04-01T05:21:16;14.73;;;12.93;;
15616;SDS011;7908;51.688;7.130;2023-04-01T05:23:45;15.27;;;13.17;;
15616;SDS011;7908;51.688;7.130;2023-04-01T05:26:14;16.37;;;13.13;;
15616;SDS011;7908;51.688;7.130;2023-04-01T05:28:42;15.67;;;14.03;;
15616;SDS011;7908;51.688;7.130;2023-04-01T05:31:12;15.63;;;13.13;;
15616;SDS011;7908;51.688;7.130;2023-04-01T05:33:41;14.90;;;13.40;;
15616;SDS011;7908;51.688;7.130;2023-04-01T05:36:12;15.83;;;13.57;;
15616;SDS011;7908;51.688;7.130;2023-04-01T05:38:44;14.97;;;13.33;;
15616;SDS011;7908;51.688;7.130;2023-04-01T05:41:13;14.33;;;12.33;;
15616;SDS011;7908;51.688;7.130;2023-04-01T05:43:42;14.23;;;12.73;;
15616;SDS011;7908;51.688;7.130;2023-04-01T05:46:12;17.80;;;14.50;;
15616;SDS011;7908;51.688;7.130;2023-04-01T05:48:41;16.27;;;14.60;;
15616;SDS011;7908;51.688;7.130;2023-04-01T05:51:11;17.33;;;14.50;;
15616;SDS011;7908;51.688;7.130;2023-04-01T05:53:41;18.13;;;15.63;;
15616;SDS011;7908;51.688;7.130;2023-04-01T05:56:10;18.80;;;14.83;;
15616;SDS011;7908;51.688;7.130;2023-04-01T05:58:38;15.30;;;13.70;;
15616;SDS011;7908;51.688;7.130;2023-04-01T06:01:08;14.40;;;12.90;;
15616;SDS011;7908;51.688;7.130;2023-04-01T06:03:43;14.77;;;13.17;;
15616;SDS011;7908;51.688;7.130;2023-04-01T06:06:13;16.60;;;12.70;;
15616;SDS011;7908;51.688;7.130;2023-04-01T06:08:43;13.50;;;12.20;;
15616;SDS011;7908;51.688;7.130;2023-04-01T06:11:18;16.13;;;13.00;;
15616;SDS011;7908;51.688;7.130;2023-04-01T06:13:57;14.83;;;13.17;;
15616;SDS011;7908;51.688;7.130;2023-04-01T06:16:40;14.27;;;12.77;;
15616;SDS011;7908;51.688;7.130;2023-04-01T06:19:23;13.20;;;11.60;;
15616;SDS011;7908;51.688;7.130;2023-04-01T06:25:22;18.70;;;13.90;;
15616;SDS011;7908;51.688;7.130;2023-04-01T06:28:07;12.87;;;10.37;;
15616;SDS011;7908;51.688;7.130;2023-04-01T06:31:01;13.60;;;11.00;;
15616;SDS011;7908;51.688;7.130;2023-04-01T06:33:42;13.93;;;10.80;;
15616;SDS011;7908;51.688;7.130;2023-04-01T06:36:33;13.63;;;10.17;;
15616;SDS011;7908;51.688;7.130;2023-04-01T06:39:13;11.27;;;8.67;;
15616;SDS011;7908;51.688;7.130;2023-04-01T06:42:04;12.77;;;8.97;;
15616;SDS011;7908;51.688;7.130;2023-04-01T06:44:47;11.03;;;9.27;;
15616;SDS011;7908;51.688;7.130;2023-04-01T06:47:31;10.60;;;8.60;;
15616;SDS011;7908;51.688;7.130;2023-04-01T06:50:11;11.57;;;8.70;;
15616;SDS011;7908;51.688;7.130;2023-04-01T06:52:50;12.63;;;9.97;;
15616;SDS011;7908;51.688;7.130;2023-04-01T06:55:27;11.57;;;9.80;;
15616;SDS011;7908;51.688;7.130;2023-04-01T06:58:04;12.90;;;9.87;;
15616;SDS011;7908;51.688;7.130;2023-04-01T07:00:39;10.90;;;9.70;;
15616;SDS011;7908;51.688;7.130;2023-04-01T07:03:13;11.90;;;9.43;;
15616;SDS011;7908;51.688;7.130;2023-04-01T07:05:46;11.80;;;9.50;;
15616;SDS011;7908;51.688;7.130;2023-04-01T07:08:17;10.53;;;9.20;;
15616;SDS011;7908;51.688;7.130;2023-04-01T07:10:50;10.93;;;9.77;;
15616;SDS011;7908;51.688;7.130;2023-04-01T07:13:24;13.27;;;11.07;;
15616;SDS011;7908;51.688;7.130;2023-04-01T07:16:05;11.83;;;10.63;;
15616;SDS011;7908;51.688;7.130;2023-04-01T07:18:41;13.33;;;11.73;;
15616;SDS011;7908;51.688;7.130;2023-04-01T07:21:17;14.20;;;10.73;;
15616;SDS011;7908;51.688;7.130;2023-04-01T07:23:56;13.73;;;11.07;;
15616;SDS011;7908;51.688;7.130;2023-04-01T07:26:28;10.97;;;9.87;;
15616;SDS011;7908;51.688;7.130;2023-04-01T07:28:57;11.13;;;10.03;;
15616;SDS011;7908;51.688;7.130;2023-04-01T07:31:30;12.87;;;10.63;;
15616;SDS011;7908;51.688;7.130;2023-04-01T07:34:12;10.57;;;9.47;;
15616;SDS011;7908;51.688;7.130;2023-04-01T07:36:48;10.20;;;9.20;;
15616;SDS011;7908;51.688;7.130;2023-04-01T07:39:27;12.53;;;10.30;;
15616;SDS011;7908;51.688;7.130;2023-04-01T07:42:05;10.30;;;8.37;;
15616;SDS011;7908;51.688;7.130;2023-04-01T07:44:43;8.43;;;7.60;;
15616;SDS011;7908;51.688;7.130;2023-04-01T07:47:21;8.47;;;7.30;;
15616;SDS011;7908;51.688;7.130;2023-04-01T07:50:13;7.60;;;6.83;;
15616;SDS011;7908;51.688;7.130;2023-04-01T07:52:50;7.50;;;6.67;;
15616;SDS011;7908;51.688;7.130;2023-04-01T07:55:28;7.63;;;6.80;;
15616;SDS011;7908;51.688;7.130;2023-04-01T07:58:04;8.43;;;7.10;;
15616;SDS011;7908;51.688;7.130;2023-04-01T08:00:40;7.73;;;6.93;;
15616;SDS011;7908;51.688;7.130;2023-04-01T08:03:29;7.23;;;6.50;;
15616;SDS011;7908;51.688;7.130;2023-04-01T08:06:05;6.00;;;5.50;;
15616;SDS011;7908;51.688;7.130;2023-04-01T08:08:43;6.37;;;5.77;;
15616;SDS011;7908;51.688;7.130;2023-04-01T08:11:28;6.33;;;5.73;;
15616;SDS011;7908;51.688;7.130;2023-04-01T08:14:09;5.67;;;5.17;;
15616;SDS011;7908;51.688;7.130;2023-04-01T08:16:50;5.77;;;5.23;;
15616;SDS011;7908;51.688;7.130;2023-04-01T08:19:30;6.00;;;5.40;;
15616;SDS011;7908;51.688;7.130;2023-04-01T08:22:14;5.83;;;5.33;;
15616;SDS011;7908;51.688;7.130;2023-04-01T08:24:47;6.87;;;5.70;;
15616;SDS011;7908;51.688;7.130;2023-04-01T08:27:20;5.50;;;5.00;;
15616;SDS011;7908;51.688;7.130;2023-04-01T08:29:54;5.50;;;4.97;;
15616;SDS011;7908;51.688;7.130;2023-04-01T08:32:28;4.73;;;4.17;;
15616;SDS011;7908;51.688;7.130;2023-04-01T08:35:02;4.43;;;4.03;;
15616;SDS011;7908;51.688;7.130;2023-04-01T08:37:42;4.80;;;4.30;;
15616;SDS011;7908;51.688;7.130;2023-04-01T08:40:26;4.53;;;4.13;;
15616;SDS011;7908;51.688;7.130;2023-04-01T08:43:10;3.97;;;3.50;;
15616;SDS011;7908;51.688;7.130;2023-04-01T08:46:02;3.73;;;3.33;;
15616;SDS011;7908;51.688;7.130;2023-04-01T08:48:50;3.60;;;3.30;;
15616;SDS011;7908;51.688;7.130;2023-04-01T08:57:33;3.73;;;3.40;;
15616;SDS011;7908;51.688;7.130;2023-04-01T09:00:19;4.33;;;3.93;;
15616;SDS011;7908;51.688;7.130;2023-04-01T09:03:10;4.77;;;4.30;;
15616;SDS011;7908;51.688;7.130;2023-04-01T09:06:02;5.20;;;4.70;;
15616;SDS011;7908;51.688;7.130;2023-04-01T09:08:52;6.10;;;5.07;;
15616;SDS011;7908;51.688;7.130;2023-04-01T09:11:44;5.33;;;4.83;;
15616;SDS011;7908;51.688;7.130;2023-04-01T09:14:38;6.80;;;5.60;;
15616;SDS011;7908;51.688;7.130;2023-04-01T09:17:43;7.60;;;6.13;;
15616;SDS011;7908;51.688;7.130;2023-04-01T09:20:44;6.93;;;6.23;;
15616;SDS011;7908;51.688;7.130;2023-04-01T09:26:22;8.73;;;7.00;;
15616;SDS011;7908;51.688;7.130;2023-04-01T09:29:05;8.43;;;6.47;;
15616;SDS011;7908;51.688;7.130;2023-04-01T09:31:52;7.73;;;6.57;;
15616;SDS011;7908;51.688;7.130;2023-04-01T09:34:55;7.70;;;6.90;;
15616;SDS011;7908;51.688;7.130;2023-04-01T09:37:41;7.37;;;6.53;;
15616;SDS011;7908;51.688;7.130;2023-04-01T09:40:22;8.07;;;6.03;;
15616;SDS011;7908;51.688;7.130;2023-04-01T09:43:16;7.80;;;6.07;;
15616;SDS011;7908;51.688;7.130;2023-04-01T09:52:00;7.43;;;6.30;;
15616;SDS011;7908;51.688;7.130;2023-04-01T09:54:52;7.97;;;6.40;;
15616;SDS011;7908;51.688;7.130;2023-04-01T10:04:07;8.33;;;6.77;;
15616;SDS011;7908;51.688;7.130;2023-04-01T10:10:09;8.30;;;6.33;;
15616;SDS011;7908;51.688;7.130;2023-04-01T10:13:14;6.07;;;5.47;;
15616;SDS011;7908;51.688;7.130;2023-04-01T10:16:09;5.73;;;5.13;;
15616;SDS011;7908;51.688;7.130;2023-04-01T10:19:09;5.87;;;5.23;;
15616;SDS011;7908;51.688;7.130;2023-04-01T10:28:25;9.20;;;5.03;;
15616;SDS011;7908;51.688;7.130;2023-04-01T10:34:37;5.93;;;5.17;;
15616;SDS011;7908;51.688;7.130;2023-04-01T10:37:36;9.13;;;5.33;;
15616;SDS011;7908;51.688;7.130;2023-04-01T10:40:29;6.33;;;4.80;;
15616;SDS011;7908;51.688;7.130;2023-04-01T10:43:27;5.23;;;4.27;;
15616;SDS011;7908;51.688;7.130;2023-04-01T10:46:38;5.23;;;3.90;;
15616;SDS011;7908;51.688;7.130;2023-04-01T10:52:44;3.07;;;2.77;;
15616;SDS011;7908;51.688;7.130;2023-04-01T10:55:36;2.60;;;2.40;;
15616;SDS011;7908;51.688;7.130;2023-04-01T10:58:43;3.23;;;2.70;;
15616;SDS011;7908;51.688;7.130;2023-04-01T11:01:42;3.23;;;2.93;;
15616;SDS011;7908;51.688;7.130;2023-04-01T11:11:18;3.60;;;2.70;;
15616;SDS011;7908;51.688;7.130;2023-04-01T11:26:57;2.93;;;2.60;;
15616;SDS011;7908;51.688;7.130;2023-04-01T11:32:31;2.80;;;2.50;;
15616;SDS011;7908;51.688;7.130;2023-04-01T11:38:26;3.27;;;2.50;;
15616;SDS011;7908;51.688;7.130;2023-04-01T11:41:13;3.60;;;2.67;;
15616;SDS011;7908;51.688;7.130;2023-04-01T11:43:55;3.63;;;2.67;;
15616;SDS011;7908;51.688;7.130;2023-04-01T11:46:39;3.23;;;2.43;;
15616;SDS011;7908;51.688;7.130;2023-04-01T11:49:20;3.17;;;2.30;;
15616;SDS011;7908;51.688;7.130;2023-04-01T11:52:08;3.17;;;2.87;;
15616;SDS011;7908;51.688;7.130;2023-04-01T11:54:56;2.97;;;2.67;;
15616;SDS011;7908;51.688;7.130;2023-04-01T11:57:51;4.17;;;2.60;;
15616;SDS011;7908;51.688;7.130;2023-04-01T12:00:49;6.17;;;3.30;;
15616;SDS011;7908;51.688;7.130;2023-04-01T12:03:33;2.67;;;2.47;;
15616;SDS011;7908;51.688;7.130;2023-04-01T12:06:22;3.50;;;2.93;;
15616;SDS011;7908;51.688;7.130;2023-04-01T12:08:59;3.17;;;2.87;;
15616;SDS011;7908;51.688;7.130;2023-04-01T12:11:38;3.80;;;3.20;;
15616;SDS011;7908;51.688;7.130;2023-04-01T12:14:16;4.10;;;3.00;;
15616;SDS011;7908;51.688;7.130;2023-04-01T12:16:54;4.07;;;3.20;;
15616;SDS011;7908;51.688;7.130;2023-04-01T12:19:32;4.13;;;3.73;;
15616;SDS011;7908;51.688;7.130;2023-04-01T12:22:21;5.47;;;4.63;;
15616;SDS011;7908;51.688;7.130;2023-04-01T12:25:19;5.73;;;4.80;;
15616;SDS011;7908;51.688;7.130;2023-04-01T12:28:03;4.67;;;4.23;;
15616;SDS011;7908;51.688;7.130;2023-04-01T12:30:42;6.50;;;4.87;;
15616;SDS011;7908;51.688;7.130;2023-04-01T12:33:35;5.70;;;4.67;;
15616;SDS011;7908;51.688;7.130;2023-04-01T12:39:22;4.80;;;4.33;;
15616;SDS011;7908;51.688;7.130;2023-04-01T12:42:05;6.80;;;5.23;;
15616;SDS011;7908;51.688;7.130;2023-04-01T12:44:46;5.40;;;4.90;;
15616;SDS011;7908;51.688;7.130;2023-04-01T12:47:28;5.53;;;4.33;;
15616;SDS011;7908;51.688;7.130;2023-04-01T12:50:16;5.30;;;4.53;;
15616;SDS011;7908;51.688;7.130;2023-04-01T12:52:58;5.83;;;4.27;;
15616;SDS011;7908;51.688;7.130;2023-04-01T12:55:38;4.40;;;4.00;;
15616;SDS011;7908;51.688;7.130;2023-04-01T13:01:29;5.13;;;4.63;;
15616;SDS011;7908;51.688;7.130;2023-04-01T13:04:31;5.43;;;4.80;;
15616;SDS011;7908;51.688;7.130;2023-04-01T13:07:22;4.87;;;4.33;;
15616;SDS011;7908;51.688;7.130;2023-04-01T13:10:14;5.17;;;4.67;;
15616;SDS011;7908;51.688;7.130;2023-04-01T13:12:59;6.67;;;4.80;;
15616;SDS011;7908;51.688;7.130;2023-04-01T13:15:37;6.27;;;5.37;;
15616;SDS011;7908;51.688;7.130;2023-04-01T13:18:18;6.70;;;5.80;;
15616;SDS011;7908;51.688;7.130;2023-04-01T13:20:54;7.80;;;7.00;;
15616;SDS011;7908;51.688;7.130;2023-04-01T13:23:33;8.13;;;6.50;;
15616;SDS011;7908;51.688;7.130;2023-04-01T13:26:13;8.67;;;6.10;;
15616;SDS011;7908;51.688;7.130;2023-04-01T13:28:51;7.00;;;6.00;;
15616;SDS011;7908;51.688;7.130;2023-04-01T13:31:27;7.47;;;6.37;;
15616;SDS011;7908;51.688;7.130;2023-04-01T13:34:08;8.73;;;7.37;;
15616;SDS011;7908;51.688;7.130;2023-04-01T13:36:55;9.83;;;7.03;;
15616;SDS011;7908;51.688;7.130;2023-04-01T13:39:35;9.93;;;6.77;;
15616;SDS011;7908;51.688;7.130;2023-04-01T13:42:17;8.63;;;5.73;;
15616;SDS011;7908;51.688;7.130;2023-04-01T13:44:52;8.27;;;6.57;;
15616;SDS011;7908;51.688;7.130;2023-04-01T13:47:37;7.60;;;5.90;;
15616;SDS011;7908;51.688;7.130;2023-04-01T13:53:29;8.13;;;6.03;;
15616;SDS011;7908;51.688;7.130;2023-04-01T13:56:29;8.47;;;6.30;;
15616;SDS011;7908;51.688;7.130;2023-04-01T13:59:04;9.63;;;6.90;;
15616;SDS011;7908;51.688;7.130;2023-04-01T14:02:05;7.50;;;6.30;;
15616;SDS011;7908;51.688;7.130;2023-04-01T14:05:00;9.50;;;7.30;;
15616;SDS011;7908;51.688;7.130;2023-04-01T14:07:47;9.43;;;7.70;;
15616;SDS011;7908;51.688;7.130;2023-04-01T14:10:27;11.50;;;8.20;;
15616;SDS011;7908;51.688;7.130;2023-04-01T14:13:06;9.97;;;8.03;;
15616;SDS011;7908;51.688;7.130;2023-04-01T14:15:42;9.30;;;8.30;;
15616;SDS011;7908;51.688;7.130;2023-04-01T14:18:33;10.27;;;8.40;;
15616;SDS011;7908;51.688;7.130;2023-04-01T14:21:17;9.27;;;8.37;;
15616;SDS011;7908;51.688;7.130;2023-04-01T14:24:12;11.33;;;8.73;;
15616;SDS011;7908;51.688;7.130;2023-04-01T14:27:02;10.40;;;8.87;;
15616;SDS011;7908;51.688;7.130;2023-04-01T14:29:47;10.33;;;8.63;;
15616;SDS011;7908;51.688;7.130;2023-04-01T14:32:39;9.63;;;8.03;;
15616;SDS011;7908;51.688;7.130;2023-04-01T14:35:27;10.50;;;8.93;;
15616;SDS011;7908;51.688;7.130;2023-04-01T14:40:58;9.83;;;8.83;;
15616;SDS011;7908;51.688;7.130;2023-04-01T14:43:47;10.87;;;9.10;;
15616;SDS011;7908;51.688;7.130;2023-04-01T14:46:35;11.50;;;9.63;;
15616;SDS011;7908;51.688;7.130;2023-04-01T14:49:42;10.83;;;9.70;;
15616;SDS011;7908;51.688;7.130;2023-04-01T14:52:15;12.60;;;10.00;;
15616;SDS011;7908;51.688;7.130;2023-04-01T14:54:49;10.37;;;9.27;;
15616;SDS011;7908;51.688;7.130;2023-04-01T14:57:24;13.07;;;10.20;;
15616;SDS011;7908;51.688;7.130;2023-04-01T14:59:59;11.03;;;9.90;;
15616;SDS011;7908;51.688;7.130;2023-04-01T15:02:38;11.47;;;9.97;;
15616;SDS011;7908;51.688;7.130;2023-04-01T15:05:16;11.00;;;9.63;;
15616;SDS011;7908;51.688;7.130;2023-04-01T15:08:15;11.23;;;9.87;;
15616;SDS011;7908;51.688;7.130;2023-04-01T15:14:03;11.03;;;9.80;;
15616;SDS011;7908;51.688;7.130;2023-04-01T15:17:00;11.50;;;9.43;;
15616;SDS011;7908;51.688;7.130;2023-04-01T15:19:43;10.43;;;8.90;;
15616;SDS011;7908;51.688;7.130;2023-04-01T15:22:32;10.83;;;9.37;;
15616;SDS011;7908;51.688;7.130;2023-04-01T15:25:19;10.83;;;9.73;;
15616;SDS011;7908;51.688;7.130;2023-04-01T15:27:58;10.87;;;9.77;;
15616;SDS011;7908;51.688;7.130;2023-04-01T15:30:34;10.77;;;9.67;;
15616;SDS011;7908;51.688;7.130;2023-04-01T15:33:17;10.67;;;9.33;;
15616;SDS011;7908;51.688;7.130;2023-04-01T15:35:57;10.73;;;9.40;;
15616;SDS011;7908;51.688;7.130;2023-04-01T15:38:35;9.50;;;8.53;;
15616;SDS011;7908;51.688;7.130;2023-04-01T15:41:14;9.60;;;8.60;;
15616;SDS011;7908;51.688;7.130;2023-04-01T15:43:44;9.43;;;8.10;;
15616;SDS011;7908;51.688;7.130;2023-04-01T15:49:20;9.07;;;8.17;;
15616;SDS011;7908;51.688;7.130;2023-04-01T15:57:51;10.67;;;9.67;;
15616;SDS011;7908;51.688;7.130;2023-04-01T16:00:33;9.93;;;8.90;;
15616;SDS011;7908;51.688;7.130;2023-04-01T16:03:19;10.73;;;8.77;;
15616;SDS011;7908;51.688;7.130;2023-04-01T16:06:10;12.10;;;9.00;;
15616;SDS011;7908;51.688;7.130;2023-04-01T16:08:53;9.33;;;8.20;;
15616;SDS011;7908;51.688;7.130;2023-04-01T16:11:39;8.60;;;7.80;;
15616;SDS011;7908;51.688;7.130;2023-04-01T16:14:20;10.47;;;9.37;;
15616;SDS011;7908;51.688;7.130;2023-04-01T16:17:03;10.23;;;8.70;;
15616;SDS011;7908;51.688;7.130;2023-04-01T16:19:53;11.40;;;8.57;;
15616;SDS011;7908;51.688;7.130;2023-04-01T16:22:32;10.23;;;9.13;;
15616;SDS011;7908;51.688;7.130;2023-04-01T16:25:14;9.60;;;8.60;;
15616;SDS011;7908;51.688;7.130;2023-04-01T16:27:50;9.73;;;8.73;;
15616;SDS011;7908;51.688;7.130;2023-04-01T16:30:34;9.03;;;7.87;;
15616;SDS011;7908;51.688;7.130;2023-04-01T16:33:10;10.37;;;9.07;;
15616;SDS011;7908;51.688;7.130;2023-04-01T16:35:45;10.20;;;9.17;;
15616;SDS011;7908;51.688;7.130;2023-04-01T16:38:22;12.60;;;10.03;;
15616;SDS011;7908;51.688;7.130;2023-04-01T16:41:07;11.50;;;10.23;;
15616;SDS011;7908;51.688;7.130;2023-04-01T16:43:43;14.37;;;10.50;;
15616;SDS011;7908;51.688;7.130;2023-04-01T16:46:26;12.23;;;10.03;;
15616;SDS011;7908;51.688;7.130;2023-04-01T16:49:15;12.57;;;10.60;;
15616;SDS011;7908;51.688;7.130;2023-04-01T16:51:57;11.93;;;10.37;;
15616;SDS011;7908;51.688;7.130;2023-04-01T16:54:41;11.23;;;9.87;;
15616;SDS011;7908;51.688;7.130;2023-04-01T16:57:17;13.30;;;10.80;;
15616;SDS011;7908;51.688;7.130;2023-04-01T16:59:54;14.53;;;10.63;;
15616;SDS011;7908;51.688;7.130;2023-04-01T17:02:28;14.67;;;11.50;;
15616;SDS011;7908;51.688;7.130;2023-04-01T17:05:05;12.83;;;10.67;;
15616;SDS011;7908;51.688;7.130;2023-04-01T17:07:44;11.37;;;10.13;;
15616;SDS011;7908;51.688;7.130;2023-04-01T17:16:19;10.07;;;8.13;;
15616;SDS011;7908;51.688;7.130;2023-04-01T17:19:05;9.80;;;8.30;;
15616;SDS011;7908;51.688;7.130;2023-04-01T17:21:49;9.57;;;8.43;;
15616;SDS011;7908;51.688;7.130;2023-04-01T17:24:32;9.80;;;7.73;;
15616;SDS011;7908;51.688;7.130;2023-04-01T17:27:17;6.63;;;6.03;;
15616;SDS011;7908;51.688;7.130;2023-04-01T17:32:54;7.27;;;6.57;;
15616;SDS011;7908;51.688;7.130;2023-04-01T17:35:49;7.37;;;6.77;;
15616;SDS011;7908;51.688;7.130;2023-04-01T17:38:37;7.40;;;6.70;;
15616;SDS011;7908;51.688;7.130;2023-04-01T17:41:24;7.87;;;7.17;;